Time;durP1;ratioP1;P1;durP2;ratioP2;P2;SDS_P1;SDS_P2;PMS_P1;PMS_P2;Temp;Humidity;BMP_temperature;BMP_pressure;BME280_temperature;BME280_humidity;BME280_pressure;Samples;Min_cycle;Max_cycle;Signal;HPM_P1;HPM_P2
2021/04/02 00:00:59;;;;;;;10.27;5.67;;;;;;;10.76;63.75;100699.53;2087463;28;20574;-76
2021/04/02 00:02:01;;;;;;;10.70;6.15;;;;;;;10.68;64.34;100704.06;2096649;28;20024;-76
2021/04/02 00:03:09;;;;;;;10.40;6.20;;;;;;;10.59;64.42;100703.38;2096912;28;20025;-77
2021/04/02 00:04:09;;;;;;;11.15;6.03;;;;;;;10.57;64.17;100702.53;2096401;28;20089;-78
2021/04/02 00:05:16;;;;;;;10.20;5.73;;;;;;;10.56;64.18;100708.66;2096813;28;20106;-76
2021/04/02 00:06:17;;;;;;;11.55;5.80;;;;;;;10.55;64.26;100712.16;2096685;28;20032;-78
2021/04/02 00:07:17;;;;;;;10.38;5.78;;;;;;;10.39;64.72;100711.63;2088194;28;20119;-78
2021/04/02 00:08:18;;;;;;;8.17;5.73;;;;;;;10.34;64.82;100717.78;2087477;28;20569;-77
2021/04/02 00:09:19;;;;;;;11.43;5.78;;;;;;;10.37;64.42;100717.72;2096054;28;20700;-77
2021/04/02 00:10:22;;;;;;;12.77;5.47;;;;;;;10.32;64.49;100709.16;2097226;28;20474;-77
2021/04/02 00:11:24;;;;;;;11.55;5.70;;;;;;;10.21;64.96;100715.44;2096169;28;20127;-77
2021/04/02 00:12:24;;;;;;;9.13;5.60;;;;;;;10.11;65.28;100726.94;2090643;28;20107;-76
2021/04/02 00:13:30;;;;;;;11.10;5.60;;;;;;;10.29;63.99;100717.88;2088646;28;20028;-76
2021/04/02 00:14:30;;;;;;;10.50;5.55;;;;;;;10.19;64.41;100725.03;2088154;28;20067;-77
2021/04/02 00:15:31;;;;;;;9.27;5.40;;;;;;;10.21;64.23;100718.06;2097238;28;20036;-77
2021/04/02 00:16:31;;;;;;;10.20;5.77;;;;;;;10.20;63.62;100718.06;2096405;28;20033;-77
2021/04/02 00:17:31;;;;;;;10.90;5.60;;;;;;;10.18;63.13;100720.72;2094775;28;20051;-76
2021/04/02 00:18:32;;;;;;;10.87;5.23;;;;;;;10.19;62.94;100725.03;2091031;28;20033;-77
2021/04/02 00:19:32;;;;;;;10.88;5.55;;;;;;;10.13;63.16;100719.97;2089049;28;20032;-76
2021/04/02 00:20:32;;;;;;;12.60;5.17;;;;;;;10.05;63.47;100716.63;2090869;28;20037;-76
2021/04/02 00:21:33;;;;;;;11.90;5.53;;;;;;;10.04;63.78;100720.16;2093434;28;20099;-76
2021/04/02 00:22:33;;;;;;;9.67;5.50;;;;;;;9.99;63.90;100716.75;2094573;28;20031;-77
2021/04/02 00:23:34;;;;;;;9.60;5.30;;;;;;;9.96;63.35;100721.13;2097073;28;20079;-76
2021/04/02 00:24:35;;;;;;;10.63;5.40;;;;;;;9.91;63.18;100717.78;2096441;28;20024;-77
2021/04/02 00:25:36;;;;;;;15.87;5.50;;;;;;;9.88;63.30;100723.03;2097357;28;20111;-77
2021/04/02 00:26:36;;;;;;;12.15;4.95;;;;;;;9.85;63.34;100730.03;2096687;28;20032;-77
2021/04/02 00:27:37;;;;;;;15.17;5.53;;;;;;;9.84;62.85;100726.59;2096002;28;20035;-78
2021/04/02 00:28:40;;;;;;;7.63;4.78;;;;;;;9.84;62.74;100725.72;2097443;28;20066;-77
2021/04/02 00:29:40;;;;;;;7.80;4.68;;;;;;;9.80;62.94;100723.16;2094392;28;20043;-78
2021/04/02 00:30:43;;;;;;;12.60;5.00;;;;;;;9.76;62.90;100728.44;2093818;28;20048;-78
2021/04/02 00:31:44;;;;;;;12.77;5.25;;;;;;;9.77;63.00;100722.38;2095234;28;20494;-79
2021/04/02 00:32:44;;;;;;;8.23;4.80;;;;;;;9.84;62.43;100721.38;2089895;28;20032;-79
2021/04/02 00:33:45;;;;;;;10.18;4.68;;;;;;;9.64;62.94;100734.75;2092954;28;20021;-78
2021/04/02 00:34:45;;;;;;;9.07;5.13;;;;;;;9.61;62.92;100722.66;2093387;28;20028;-77
2021/04/02 00:35:46;;;;;;;9.73;5.67;;;;;;;9.60;62.95;100727.91;2094489;28;20092;-77
2021/04/02 00:36:46;;;;;;;9.43;4.70;;;;;;;9.57;62.66;100731.38;2092296;28;20032;-77
2021/04/02 00:37:46;;;;;;;15.50;4.97;;;;;;;9.56;62.67;100727.06;2089501;28;20033;-76
2021/04/02 00:38:47;;;;;;;12.80;4.93;;;;;;;9.44;63.05;100729.91;2085794;28;20045;-77
2021/04/02 00:39:47;;;;;;;9.27;4.50;;;;;;;9.42;62.74;100729.91;2087505;28;20032;-77
2021/04/02 00:40:51;;;;;;;6.97;4.60;;;;;;;9.42;63.19;100727.31;2090634;28;20035;-76
2021/04/02 00:41:51;;;;;;;7.05;4.28;;;;;;;9.49;62.21;100725.47;2091836;28;20387;-77
2021/04/02 00:42:52;;;;;;;9.83;4.30;;;;;;;9.40;62.40;100726.50;2088830;28;20060;-77
2021/04/02 00:43:52;;;;;;;8.07;4.47;;;;;;;9.37;62.66;100729.16;2087373;28;20040;-76
2021/04/02 00:44:52;;;;;;;10.10;4.63;;;;;;;9.31;62.75;100724.03;2087209;28;20032;-77
2021/04/02 00:45:53;;;;;;;7.63;4.67;;;;;;;9.29;62.99;100724.06;2092540;28;20039;-76
2021/04/02 00:46:53;;;;;;;12.80;4.70;;;;;;;9.20;63.00;100729.41;2095953;28;20032;-77
2021/04/02 00:47:55;;;;;;;7.37;5.00;;;;;;;9.17;62.92;100726.84;2092223;28;20038;-77
2021/04/02 00:48:55;;;;;;;6.40;4.40;;;;;;;9.19;62.90;100725.09;2096307;28;20492;-77
2021/04/02 00:49:56;;;;;;;15.47;4.97;;;;;;;9.14;62.92;100719.97;2094904;28;20036;-77
2021/04/02 00:51:08;;;;;;;9.67;4.70;;;;;;;9.05;63.47;100725.31;2096795;28;20027;-77
2021/04/02 00:52:08;;;;;;;6.28;4.22;;;;;;;9.07;63.49;100723.56;2093913;28;20032;-76
2021/04/02 00:53:09;;;;;;;6.63;4.50;;;;;;;8.97;63.22;100730.63;2084959;28;20029;-76
2021/04/02 00:54:09;;;;;;;8.03;4.40;;;;;;;9.02;62.97;100727.94;2085992;28;20069;-77
2021/04/02 00:55:10;;;;;;;9.37;4.37;;;;;;;9.01;62.78;100734.91;2096187;28;20271;-77
2021/04/02 00:56:12;;;;;;;10.30;4.35;;;;;;;8.98;62.87;100732.34;2096968;28;20032;-76
2021/04/02 00:57:13;;;;;;;8.10;4.30;;;;;;;8.83;63.47;100732.59;2096098;28;20095;-77
2021/04/02 00:58:19;;;;;;;10.20;4.63;;;;;;;8.80;63.55;100730.91;2096431;28;20143;-77
2021/04/02 00:59:20;;;;;;;6.78;3.95;;;;;;;8.79;63.71;100731.78;2095718;28;20131;-77
2021/04/02 01:00:20;;;;;;;8.23;4.50;;;;;;;8.77;63.72;100735.28;2096294;28;20028;-77
2021/04/02 01:01:21;;;;;;;9.60;3.97;;;;;;;8.70;63.71;100732.75;2096821;28;20542;-78
2021/04/02 01:02:21;;;;;;;12.63;4.50;;;;;;;8.67;63.91;100727.59;2096286;28;20194;-78
2021/04/02 01:03:23;;;;;;;9.73;4.50;;;;;;;8.66;63.78;100735.41;2097793;28;20051;-78
2021/04/02 01:04:23;;;;;;;10.25;4.68;;;;;;;8.60;63.71;100730.31;2098040;28;20047;-77
2021/04/02 01:05:28;;;;;;;9.57;4.30;;;;;;;8.59;63.42;100734.63;2088991;28;20025;-76
2021/04/02 01:06:29;;;;;;;6.00;4.18;;;;;;;8.55;63.06;100735.56;2089897;28;20020;-78
2021/04/02 01:07:29;;;;;;;9.17;4.30;;;;;;;8.59;63.09;100733.78;2095781;28;20497;-77
2021/04/02 01:08:33;;;;;;;9.83;4.13;;;;;;;8.57;63.04;100728.63;2098008;28;20032;-77
2021/04/02 01:09:33;;;;;;;11.18;4.40;;;;;;;8.52;63.41;100738.19;2098364;28;20027;-77
2021/04/02 01:10:34;;;;;;;11.70;4.17;;;;;;;8.44;63.75;100732.22;2097960;28;20012;-77
2021/04/02 01:11:35;;;;;;;9.80;4.30;;;;;;;8.45;63.73;100739.13;2095461;28;20020;-77
2021/04/02 01:12:35;;;;;;;7.43;4.10;;;;;;;8.44;63.58;100734.81;2085564;28;20614;-76
2021/04/02 01:13:39;;;;;;;10.57;4.23;;;;;;;8.36;63.76;100738.38;2083018;28;20068;-77
2021/04/02 01:14:39;;;;;;;9.10;4.45;;;;;;;8.43;63.15;100731.34;2094274;28;20028;-77
2021/04/02 01:15:47;;;;;;;12.93;4.00;;;;;;;8.45;62.49;100733.94;2093434;28;20072;-77
2021/04/02 01:16:47;;;;;;;9.70;4.20;;;;;;;8.36;62.88;100730.59;2097869;28;20024;-76
2021/04/02 01:17:52;;;;;;;9.53;3.97;;;;;;;8.37;62.84;100729.72;2098114;28;20450;-77
2021/04/02 01:19:00;;;;;;;8.35;4.05;;;;;;;8.37;62.56;100727.09;2097801;28;20035;-77
2021/04/02 01:20:01;;;;;;;10.80;3.88;;;;;;;8.31;62.88;100729.75;2098758;28;20054;-77
2021/04/02 01:21:22;;;;;;;7.65;4.10;;;;;;;8.30;62.50;100725.44;2096224;28;20024;-77
2021/04/02 01:22:27;;;;;;;9.00;3.80;;;;;;;8.33;61.54;100724.53;2092994;28;20078;-77
2021/04/02 01:23:33;;;;;;;7.45;3.80;;;;;;;8.41;60.92;100725.31;2095221;28;20032;-77
2021/04/02 01:24:55;;;;;;;8.15;3.78;;;;;;;8.37;60.55;100726.22;2095831;28;20020;-77
2021/04/02 01:26:13;;;;;;;6.95;3.63;;;;;;;8.31;60.26;100734.09;2097224;28;20537;-77
2021/04/02 01:27:34;;;;;;;6.03;3.50;;;;;;;8.25;60.08;100735.03;2098034;28;20090;-76
2021/04/02 01:28:56;;;;;;;8.10;3.60;;;;;;;8.29;59.86;100741.06;2096512;28;20020;-76
2021/04/02 01:30:02;;;;;;;15.70;3.67;;;;;;;8.22;59.51;100740.25;2096592;28;20032;-76
2021/04/02 01:31:03;;;;;;;6.93;3.25;;;;;;;8.27;58.92;100754.06;2097278;28;20044;-77
2021/04/02 01:32:08;;;;;;;6.57;3.28;;;;;;;8.20;59.23;100747.22;2097113;28;20064;-77
2021/04/02 01:33:10;;;;;;;8.75;3.72;;;;;;;8.28;58.04;100753.16;2093996;28;20048;-77
2021/04/02 01:34:11;;;;;;;8.75;3.13;;;;;;;8.19;58.01;100746.34;2097749;28;20043;-77
2021/04/02 01:35:19;;;;;;;6.88;2.85;;;;;;;8.22;57.42;100748.06;2089323;28;20092;-77
2021/04/02 01:36:21;;;;;;;8.75;3.35;;;;;;;8.10;57.78;100747.31;2089875;28;20021;-76
2021/04/02 01:37:30;;;;;;;6.65;3.30;;;;;;;8.13;57.95;100745.56;2098564;28;20070;-76
2021/04/02 01:38:37;;;;;;;5.93;3.17;;;;;;;8.08;58.08;100743.03;2096214;28;20017;-77
2021/04/02 01:39:41;;;;;;;5.85;3.20;;;;;;;8.06;57.86;100735.25;2087255;28;20035;-77
2021/04/02 01:40:44;;;;;;;6.38;3.20;;;;;;;8.20;57.17;100732.50;2088040;28;20078;-77
2021/04/02 01:41:49;;;;;;;8.35;3.20;;;;;;;8.17;56.73;100742.91;2095978;28;20040;-77
2021/04/02 01:42:51;;;;;;;6.63;3.45;;;;;;;8.10;57.05;100734.34;2098105;28;20028;-76
2021/04/02 01:43:55;;;;;;;7.68;3.38;;;;;;;8.18;57.03;100741.19;2095335;28;20078;-77
2021/04/02 01:44:56;;;;;;;7.57;3.35;;;;;;;8.21;56.69;100748.94;2098133;28;20067;-76
2021/04/02 01:45:57;;;;;;;;;;;;;;;8.17;56.63;100747.25;2097304;28;20640;-76
2021/04/02 01:46:58;;;;;;;9.05;3.40;;;;;;;8.08;57.04;100750.81;2091928;28;19923;-76
2021/04/02 01:48:00;;;;;;;7.90;3.20;;;;;;;7.95;57.50;100750.94;2098162;28;20024;-76
2021/04/02 01:49:04;;;;;;;7.82;3.20;;;;;;;7.95;57.78;100757.88;2097462;28;20111;-77
2021/04/02 01:50:12;;;;;;;6.32;3.30;;;;;;;7.90;57.98;100759.63;2089359;28;20020;-76
2021/04/02 01:51:15;;;;;;;10.40;3.60;;;;;;;7.86;58.35;100752.78;2088464;28;20107;-76
2021/04/02 01:52:15;;;;;;;7.53;3.20;;;;;;;7.83;58.22;100755.41;2095156;28;20043;-76
2021/04/02 01:53:19;;;;;;;6.72;3.40;;;;;;;7.76;58.57;100752.88;2098080;28;20039;-76
2021/04/02 01:54:22;;;;;;;8.40;3.50;;;;;;;7.67;59.04;100750.38;2097490;28;20036;-76
2021/04/02 01:55:22;;;;;;;8.73;3.50;;;;;;;7.62;59.43;100749.53;2097976;28;20099;-76
2021/04/02 01:56:23;;;;;;;7.23;3.33;;;;;;;7.57;59.98;100751.31;2092580;28;20025;-76
2021/04/02 01:57:25;;;;;;;7.07;3.40;;;;;;;7.50;60.61;100752.22;2095956;28;20397;-77
2021/04/02 01:58:26;;;;;;;6.25;3.63;;;;;;;7.44;61.23;100746.25;2096658;28;20492;-77
2021/04/02 01:59:27;;;;;;;7.45;4.13;;;;;;;7.44;61.37;100751.41;2088434;28;20075;-77
2021/04/02 02:00:36;;;;;;;6.55;3.83;;;;;;;7.37;61.86;100752.34;2088073;28;20533;-77
2021/04/02 02:01:39;;;;;;;9.60;4.00;;;;;;;7.29;62.48;100742.03;2090628;28;20092;-77
2021/04/02 02:02:41;;;;;;;8.80;3.90;;;;;;;7.34;62.22;100754.13;2087046;28;20070;-77
2021/04/02 02:03:47;;;;;;;10.02;4.47;;;;;;;7.30;62.35;100754.13;2089089;28;20086;-78
2021/04/02 02:04:49;;;;;;;9.10;4.20;;;;;;;7.24;62.47;100753.31;2091090;28;20021;-78
2021/04/02 02:05:54;;;;;;;9.85;4.55;;;;;;;7.20;62.50;100752.47;2091882;28;20056;-78
2021/04/02 02:06:55;;;;;;;11.68;4.50;;;;;;;7.13;62.71;100761.19;2092916;28;20096;-77
2021/04/02 02:07:58;;;;;;;13.02;4.88;;;;;;;7.15;62.85;100760.28;2092624;28;20013;-77
2021/04/02 02:09:00;;;;;;;8.43;4.40;;;;;;;7.12;62.97;100762.91;2093040;28;20033;-78
2021/04/02 02:10:00;;;;;;;;;;;;;;;7.06;63.09;100754.28;2091738;28;20077;-77
2021/04/02 02:11:11;;;;;;;13.15;4.95;;;;;;;7.04;62.87;100756.91;2093933;28;19954;-76
2021/04/02 02:12:15;;;;;;;13.13;4.78;;;;;;;7.02;62.82;100758.66;2095795;28;20124;-76
2021/04/02 02:13:17;;;;;;;6.90;3.95;;;;;;;7.00;62.85;100763.00;2088127;28;20182;-77
2021/04/02 02:14:19;;;;;;;6.50;4.53;;;;;;;6.96;62.92;100756.09;2086525;28;20091;-78
2021/04/02 02:15:20;;;;;;;10.23;4.57;;;;;;;6.87;63.20;100766.53;2096723;28;20039;-77
2021/04/02 02:16:22;;;;;;;7.68;4.15;;;;;;;6.86;63.30;100768.25;2098218;28;20528;-78
2021/04/02 02:17:24;;;;;;;11.48;4.75;;;;;;;6.81;63.67;100772.59;2089385;28;20132;-78
2021/04/02 02:18:26;;;;;;;11.07;4.47;;;;;;;6.75;63.85;100768.31;2089175;28;20029;-78
2021/04/02 02:19:29;;;;;;;9.10;4.38;;;;;;;6.74;63.76;100770.91;2092735;28;20081;-77
2021/04/02 02:20:31;;;;;;;11.32;4.90;;;;;;;6.72;63.68;100770.91;2095441;28;20039;-78
2021/04/02 02:21:32;;;;;;;9.35;4.55;;;;;;;6.76;63.43;100774.38;2095566;28;20030;-78
2021/04/02 02:22:33;;;;;;;12.98;4.43;;;;;;;6.74;62.91;100776.09;2094898;28;20574;-78
2021/04/02 02:23:33;;;;;;;10.18;5.15;;;;;;;6.70;62.63;100775.25;2092310;28;20028;-77
2021/04/02 02:24:35;;;;;;;13.02;4.60;;;;;;;6.64;63.34;100772.69;2091551;28;20048;-77
2021/04/02 02:25:37;;;;;;;10.13;4.72;;;;;;;6.57;63.79;100773.59;2097211;28;20505;-77
2021/04/02 02:26:40;;;;;;;;;;;;;;;6.61;63.46;100763.19;2097192;28;20054;-83
2021/04/02 02:27:41;;;;;;;9.00;5.00;;;;;;;6.56;64.01;100764.09;2098056;28;19920;-83
2021/04/02 02:28:42;;;;;;;8.10;4.82;;;;;;;6.58;64.16;100765.78;2098604;28;20024;-84
2021/04/02 02:29:42;;;;;;;9.82;4.30;;;;;;;6.56;63.94;100758.91;2094982;28;20039;-85
2021/04/02 02:30:44;;;;;;;7.57;3.97;;;;;;;6.56;63.62;100756.31;2097921;28;20059;-85
2021/04/02 02:31:44;;;;;;;;;;;;;;;6.51;63.64;100761.53;2089854;28;20025;-85
2021/04/02 02:32:46;;;;;;;8.63;4.32;;;;;;;6.47;63.72;100760.69;2084381;28;19959;-85
2021/04/02 02:33:46;;;;;;;8.95;4.60;;;;;;;6.53;63.89;100759.78;2097463;28;20024;-85
2021/04/02 02:34:46;;;;;;;9.37;4.50;;;;;;;6.49;63.83;100764.13;2091137;28;20028;-84
2021/04/02 02:35:46;;;;;;;7.90;4.10;;;;;;;6.46;63.71;100764.13;2095745;28;20028;-84
2021/04/02 02:36:47;;;;;;;10.30;4.33;;;;;;;6.38;64.08;100765.91;2096944;28;20336;-83
2021/04/02 02:37:50;;;;;;;8.77;4.28;;;;;;;6.35;64.07;100771.94;2096847;28;20020;-83
2021/04/02 02:38:51;;;;;;;8.18;4.50;;;;;;;6.27;64.20;100772.84;2089795;28;20103;-84
2021/04/02 02:39:52;;;;;;;10.65;4.88;;;;;;;6.21;64.73;100758.19;2096835;28;20471;-82
2021/04/02 02:40:55;;;;;;;8.60;4.40;;;;;;;6.17;64.74;100777.19;2091274;28;20041;-82
2021/04/02 02:41:56;;;;;;;8.75;4.45;;;;;;;6.06;65.06;100775.50;2091939;28;20025;-84
2021/04/02 02:42:57;;;;;;;7.60;4.85;;;;;;;6.08;65.06;100778.06;2092771;28;20052;-82
2021/04/02 02:43:58;;;;;;;;;;;;;;;6.00;65.27;100775.47;2088513;28;20036;-85
2021/04/02 02:44:58;;;;;;;10.32;4.60;;;;;;;6.03;65.60;100779.78;2079685;28;20398;-84
2021/04/02 02:45:59;;;;;;;9.90;4.60;;;;;;;5.93;65.82;100786.69;2086897;28;20017;-84
2021/04/02 02:47:08;;;;;;;14.37;4.83;;;;;;;5.87;66.28;100787.56;2095324;28;20382;-83
2021/04/02 02:48:10;;;;;;;8.45;4.65;;;;;;;6.01;66.22;100781.53;2097861;28;20081;-83
2021/04/02 02:49:17;;;;;;;9.65;4.78;;;;;;;5.95;66.13;100781.50;2097844;28;20025;-84
2021/04/02 02:50:25;;;;;;;8.45;4.50;;;;;;;5.86;66.32;100783.25;2092130;28;20051;-78
2021/04/02 02:51:31;;;;;;;8.85;4.45;;;;;;;5.80;66.91;100778.09;2090536;28;20017;-78
2021/04/02 02:52:34;;;;;;;13.57;4.65;;;;;;;5.85;66.74;100781.50;2079386;28;20082;-78
2021/04/02 02:53:35;;;;;;;8.88;4.93;;;;;;;5.80;67.01;100780.69;2081007;28;20574;-75
2021/04/02 02:54:38;;;;;;;7.93;4.72;;;;;;;5.78;67.36;100779.81;2080226;28;20040;-76
2021/04/02 02:55:40;;;;;;;12.13;4.80;;;;;;;5.74;67.67;100775.50;2080657;28;20399;-76
2021/04/02 02:56:43;;;;;;;7.43;4.80;;;;;;;5.72;67.66;100774.66;2090436;28;20032;-76
2021/04/02 02:57:45;;;;;;;9.85;4.82;;;;;;;5.67;67.93;100781.53;2096585;28;20070;-76
2021/04/02 02:58:48;;;;;;;10.68;5.20;;;;;;;5.67;68.07;100776.38;2091313;28;20434;-75
2021/04/02 02:59:51;;;;;;;9.45;4.95;;;;;;;5.61;68.33;100788.44;2097751;28;20521;-75
2021/04/02 03:00:52;;;;;;;12.15;4.82;;;;;;;5.58;68.24;100785.84;2097093;28;20482;-75
2021/04/02 03:01:54;;;;;;;8.65;5.40;;;;;;;5.49;68.42;100788.44;2087651;28;20028;-76
2021/04/02 03:02:58;;;;;;;13.43;5.35;;;;;;;5.42;69.03;100792.75;2085940;28;20113;-75
2021/04/02 03:04:00;;;;;;;7.85;5.55;;;;;;;5.35;69.42;100784.97;2095043;28;20029;-75
2021/04/02 03:05:01;;;;;;;11.52;5.60;;;;;;;5.27;70.10;100787.56;2093804;28;20745;-75
2021/04/02 03:06:02;;;;;;;12.10;5.07;;;;;;;5.22;70.28;100789.28;2096891;28;20028;-76
2021/04/02 03:07:04;;;;;;;10.18;5.20;;;;;;;5.29;70.10;100785.84;2095450;28;20035;-75
2021/04/02 03:08:06;;;;;;;9.15;5.60;;;;;;;5.32;69.92;100785.84;2089023;28;20021;-75
2021/04/02 03:09:09;;;;;;;9.85;5.53;;;;;;;5.29;70.08;100781.53;2089155;28;20059;-75
2021/04/02 03:10:11;;;;;;;9.10;5.28;;;;;;;5.22;70.33;100781.53;2089161;28;20486;-75
2021/04/02 03:11:15;;;;;;;10.65;5.75;;;;;;;5.21;70.68;100774.63;2089570;28;20053;-75
2021/04/02 03:12:17;;;;;;;8.93;5.28;;;;;;;5.13;70.86;100774.63;2089902;28;20471;-75
2021/04/02 03:13:22;;;;;;;12.27;5.47;;;;;;;5.09;71.15;100773.78;2089869;28;20036;-76
2021/04/02 03:14:24;;;;;;;10.60;5.47;;;;;;;5.20;70.85;100778.06;2089506;28;20032;-75
2021/04/02 03:15:26;;;;;;;8.77;5.40;;;;;;;5.13;71.03;100774.63;2089018;28;20021;-75
2021/04/02 03:16:27;;;;;;;12.18;6.10;;;;;;;5.09;71.32;100783.22;2089081;28;20056;-75
2021/04/02 03:17:28;;;;;;;8.00;5.50;;;;;;;4.95;72.11;100778.88;2089789;28;20036;-75
2021/04/02 03:18:29;;;;;;;11.90;6.47;;;;;;;4.99;71.99;100783.22;2089801;28;20455;-75
2021/04/02 03:19:32;;;;;;;8.90;5.50;;;;;;;4.87;72.35;100782.34;2089811;28;20025;-75
2021/04/02 03:20:38;;;;;;;7.65;5.45;;;;;;;4.86;72.62;100780.59;2080726;28;20407;-75
2021/04/02 03:21:39;;;;;;;12.50;5.78;;;;;;;4.77;72.96;100782.31;2081710;28;20032;-75
2021/04/02 03:22:39;;;;;;;13.77;5.82;;;;;;;4.74;73.23;100778.84;2080542;28;20029;-75
2021/04/02 03:23:43;;;;;;;9.67;5.93;;;;;;;4.70;73.43;100780.56;2080232;28;20381;-76
2021/04/02 03:24:45;;;;;;;12.25;5.90;;;;;;;4.67;73.28;100776.22;2088417;28;20100;-75
2021/04/02 03:25:47;;;;;;;10.23;6.10;;;;;;;4.63;73.80;100787.44;2080113;28;20025;-75
2021/04/02 03:26:51;;;;;;;11.95;6.30;;;;;;;4.62;73.92;100774.50;2080946;28;20025;-76
2021/04/02 03:27:54;;;;;;;13.45;6.32;;;;;;;4.58;74.17;100778.78;2089725;28;20475;-75
2021/04/02 03:28:55;;;;;;;10.10;5.88;;;;;;;4.64;73.87;100772.78;2089795;28;20046;-75
2021/04/02 03:29:56;;;;;;;10.13;6.40;;;;;;;4.64;73.46;100773.66;2089813;28;20074;-75
2021/04/02 03:30:56;;;;;;;11.57;6.50;;;;;;;4.67;73.77;100773.66;2080572;28;20492;-75
2021/04/02 03:32:02;;;;;;;11.73;6.10;;;;;;;4.67;73.92;100771.06;2080988;28;20053;-75
2021/04/02 03:33:14;;;;;;;11.38;6.35;;;;;;;4.70;74.14;100767.66;2089766;28;20033;-75
2021/04/02 03:34:17;;;;;;;9.43;6.70;;;;;;;4.66;74.43;100763.31;2089632;28;20033;-75
2021/04/02 03:35:19;;;;;;;11.68;6.93;;;;;;;4.64;74.73;100768.50;2089716;28;20029;-75
2021/04/02 03:36:21;;;;;;;10.23;6.63;;;;;;;4.64;74.87;100771.06;2089758;28;20025;-76
2021/04/02 03:37:22;;;;;;;;;;;;;;;4.59;74.92;100772.78;2090051;28;20033;-75
2021/04/02 03:38:25;;;;;;;9.30;6.35;;;;;;;4.55;74.99;100776.22;2089732;28;19958;-75
2021/04/02 03:39:28;;;;;;;14.80;6.82;;;;;;;4.49;75.50;100779.63;2089683;28;20387;-75
2021/04/02 03:40:31;;;;;;;11.77;7.13;;;;;;;4.42;75.89;100783.00;2080648;28;20028;-75
2021/04/02 03:41:33;;;;;;;12.57;6.93;;;;;;;4.41;75.91;100783.88;2080863;28;20032;-75
2021/04/02 03:42:35;;;;;;;11.60;7.38;;;;;;;4.47;75.74;100783.91;2089739;28;20044;-75
2021/04/02 03:43:37;;;;;;;16.55;7.65;;;;;;;4.48;75.97;100788.22;2089642;28;20024;-75
2021/04/02 03:44:40;;;;;;;12.23;7.78;;;;;;;4.49;75.93;100791.66;2089604;28;20368;-75
2021/04/02 03:45:42;;;;;;;15.18;7.55;;;;;;;4.44;75.92;100788.22;2089534;28;20083;-75
2021/04/02 03:46:44;;;;;;;11.70;7.78;;;;;;;4.41;76.04;100783.03;2080719;28;20025;-76
2021/04/02 03:47:48;;;;;;;14.02;7.78;;;;;;;4.45;76.44;100785.63;2080859;28;20105;-75
2021/04/02 03:48:50;;;;;;;11.27;8.18;;;;;;;4.52;76.38;100777.03;2089615;28;20021;-75
2021/04/02 03:49:52;;;;;;;15.02;8.27;;;;;;;4.50;76.29;100777.91;2089484;28;20028;-75
2021/04/02 03:50:55;;;;;;;16.08;8.20;;;;;;;4.49;76.46;100763.25;2089504;28;20013;-75
2021/04/02 03:52:00;;;;;;;10.73;8.23;;;;;;;4.46;76.85;100770.97;2089580;28;20021;-75
2021/04/02 03:53:06;;;;;;;11.52;8.15;;;;;;;4.48;76.62;100766.69;2089682;28;20464;-75
2021/04/02 03:54:10;;;;;;;12.27;8.27;;;;;;;4.44;76.90;100768.41;2089400;28;20037;-75
2021/04/02 03:55:17;;;;;;;12.68;8.48;;;;;;;4.46;77.34;100758.06;2089868;28;20029;-75
2021/04/02 03:56:22;;;;;;;13.77;8.35;;;;;;;4.42;76.95;100772.69;2089500;28;20029;-76
2021/04/02 03:57:25;;;;;;;11.93;8.82;;;;;;;4.41;77.25;100772.69;2089642;28;20034;-76
2021/04/02 03:58:26;;;;;;;12.85;8.95;;;;;;;4.42;77.37;100770.13;2089465;28;20078;-76
2021/04/02 03:59:29;;;;;;;12.88;8.68;;;;;;;4.34;77.51;100775.25;2089621;28;20544;-76
2021/04/02 04:00:33;;;;;;;10.57;8.18;;;;;;;4.34;77.82;100788.16;2091809;28;20024;-76
2021/04/02 04:01:38;;;;;;;13.85;8.70;;;;;;;4.34;77.88;100779.53;2097241;28;20020;-76
2021/04/02 04:02:38;;;;;;;11.93;9.68;;;;;;;4.33;78.02;100783.84;2096836;28;20127;-76
2021/04/02 04:03:45;;;;;;;16.87;8.90;;;;;;;4.26;78.40;100787.25;2097498;28;20458;-76
2021/04/02 04:04:47;;;;;;;12.93;8.57;;;;;;;4.24;78.42;100780.34;2097286;28;20021;-75
2021/04/02 04:05:50;;;;;;;13.60;9.27;;;;;;;4.29;78.32;100789.00;2096617;28;20024;-75
2021/04/02 04:06:57;;;;;;;13.15;9.10;;;;;;;4.18;78.68;100784.63;2097036;28;20020;-76
2021/04/02 04:08:00;;;;;;;12.20;9.88;;;;;;;4.19;78.87;100788.94;2097661;28;20038;-76
2021/04/02 04:09:06;;;;;;;12.27;9.27;;;;;;;4.16;78.71;100791.50;2097107;28;20074;-76
2021/04/02 04:10:07;;;;;;;14.40;9.80;;;;;;;4.31;78.64;100782.13;2097058;28;20028;-76
2021/04/02 04:11:10;;;;;;;13.75;9.43;;;;;;;4.16;79.03;100785.50;2097286;28;20024;-76
2021/04/02 04:12:12;;;;;;;12.60;9.45;;;;;;;4.17;79.09;100779.44;2097746;28;20483;-76
2021/04/02 04:13:34;;;;;;;13.35;9.52;;;;;;;4.12;79.54;100788.91;2097545;28;20028;-76
2021/04/02 04:14:36;;;;;;;13.00;9.10;;;;;;;4.00;79.79;100794.84;2097548;28;20032;-75
2021/04/02 04:15:38;;;;;;;15.57;9.77;;;;;;;4.05;79.69;100796.63;2088705;28;20025;-75
2021/04/02 04:16:41;;;;;;;16.35;9.70;;;;;;;3.95;79.75;100793.94;2080625;28;20033;-76
2021/04/02 04:17:45;;;;;;;16.38;9.13;;;;;;;3.99;80.06;100793.97;2089177;28;20566;-76
2021/04/02 04:18:48;;;;;;;15.45;9.60;;;;;;;3.96;80.35;100799.13;2088719;28;20021;-75
2021/04/02 04:19:49;;;;;;;16.42;9.40;;;;;;;3.98;80.30;100799.97;2089119;28;20025;-75
2021/04/02 04:20:55;;;;;;;16.02;9.73;;;;;;;3.92;80.43;100799.94;2088514;28;20536;-76
2021/04/02 04:21:57;;;;;;;15.68;10.00;;;;;;;3.89;80.58;100797.34;2089549;28;20020;-75
2021/04/02 04:22:58;;;;;;;16.90;9.93;;;;;;;3.95;80.38;100799.97;2097640;28;20032;-75
2021/04/02 04:24:01;;;;;;;18.13;10.20;;;;;;;3.90;80.80;100796.50;2097683;28;20021;-75
2021/04/02 04:25:03;;;;;;;16.65;9.60;;;;;;;3.94;80.88;100797.38;2097608;28;20035;-75
2021/04/02 04:26:05;;;;;;;14.20;9.85;;;;;;;3.89;80.83;100795.66;2097652;28;20025;-75
2021/04/02 04:27:06;;;;;;;16.58;9.68;;;;;;;3.94;80.78;100795.66;2097610;28;20486;-75
2021/04/02 04:28:10;;;;;;;13.18;9.30;;;;;;;3.86;80.97;100805.94;2097712;28;20028;-75
2021/04/02 04:29:19;;;;;;;13.30;9.27;;;;;;;3.78;81.17;100802.44;2097601;28;20024;-75
2021/04/02 04:30:21;;;;;;;13.82;10.23;;;;;;;3.72;81.69;100803.25;2097462;28;20387;-75
2021/04/02 04:31:23;;;;;;;14.82;10.38;;;;;;;3.70;81.93;100806.69;2093428;28;20032;-75
2021/04/02 04:32:26;;;;;;;15.13;10.20;;;;;;;3.59;82.26;100801.41;2095013;28;20038;-75
2021/04/02 04:33:27;;;;;;;13.98;9.85;;;;;;;3.54;82.49;100809.09;2092632;28;20381;-75
2021/04/02 04:34:30;;;;;;;14.30;10.43;;;;;;;3.49;82.31;100808.22;2088403;28;20029;-75
2021/04/02 04:35:32;;;;;;;14.32;10.38;;;;;;;3.51;82.53;100813.38;2093681;28;20097;-75
2021/04/02 04:36:33;;;;;;;16.58;10.05;;;;;;;3.49;82.57;100804.75;2093885;28;20028;-75
2021/04/02 04:37:35;;;;;;;14.88;10.48;;;;;;;3.49;82.78;100804.75;2094580;28;20107;-75
2021/04/02 04:38:37;;;;;;;16.67;10.60;;;;;;;3.46;82.73;100797.88;2090841;28;20017;-75
2021/04/02 04:39:40;;;;;;;16.45;11.05;;;;;;;3.43;83.30;100798.72;2095108;28;20032;-75
2021/04/02 04:40:42;;;;;;;19.02;10.50;;;;;;;3.44;82.94;100802.16;2097096;28;20032;-75
2021/04/02 04:41:43;;;;;;;14.27;9.98;;;;;;;3.43;82.98;100800.41;2096625;28;20498;-75
2021/04/02 04:42:45;;;;;;;15.95;11.00;;;;;;;3.36;83.38;100803.78;2097640;28;20455;-75
2021/04/02 04:43:46;;;;;;;16.77;10.75;;;;;;;3.32;83.34;100800.34;2097045;28;20043;-75
2021/04/02 04:44:49;;;;;;;14.35;10.43;;;;;;;3.28;83.48;100803.75;2097244;28;20024;-76
2021/04/02 04:45:50;;;;;;;15.55;10.50;;;;;;;3.32;83.27;100807.22;2097555;28;20021;-75
2021/04/02 04:46:50;;;;;;;17.47;10.83;;;;;;;3.27;83.58;100810.59;2097249;28;20078;-75
2021/04/02 04:47:51;;;;;;;18.17;11.33;;;;;;;3.24;83.70;100809.72;2097573;28;20494;-76
2021/04/02 04:48:51;;;;;;;14.48;10.82;;;;;;;3.26;83.77;100814.00;2097502;28;20020;-76
2021/04/02 04:49:52;;;;;;;21.13;11.70;;;;;;;3.27;83.96;100814.91;2097576;28;20119;-75
2021/04/02 04:50:52;;;;;;;16.97;10.43;;;;;;;3.22;83.96;100812.28;2097338;28;20027;-75
2021/04/02 04:51:54;;;;;;;14.67;11.83;;;;;;;3.23;83.81;100813.97;2097556;28;20750;-75
2021/04/02 04:53:12;;;;;;;25.23;12.70;;;;;;;3.27;83.83;100810.59;2097548;28;20379;-76
2021/04/02 04:54:14;;;;;;;18.00;12.10;;;;;;;3.33;83.53;100812.38;2097435;28;20483;-75